TAY4999 LFPG-EBLG
Flight info
| Callsign | TAY4999 |
|---|---|
| Flight time | 0h 33m |
| Altitude | 22000 |
| Route | NURMO DCT CMB DCT ROBAL/N0325F180 M617 CIV |
| Aircraft | B738/M-SDE2E3FGHIRWXY/LB1 |
Departure
| Time | 2026-04-21 13:02 |
|---|---|
| Airport | Charles de Gaulle International Airport (LFPG) |
Arrival
| Time | 2026-04-21 13:35 |
|---|---|
| Airport | Liège Airport (EBLG) |
| Time | Latitude | Longitude | Altitude | Speed | Heading |
|---|---|---|---|---|---|
| 2026-04-21 12:48 | 49.01506 | 2.50321 | 362 ft | 0 kts | 355° |
| 2026-04-21 12:55 | 49.01486 | 2.50323 | 363 ft | 4 kts | 359° |
| 2026-04-21 12:56 | 49.01459 | 2.50321 | 361 ft | 4 kts | 10° |
| 2026-04-21 12:56 | 49.01434 | 2.50310 | 363 ft | 4 kts | 36° |
| 2026-04-21 12:56 | 49.01422 | 2.50286 | 361 ft | 1 kts | 86° |
| 2026-04-21 12:56 | 49.01422 | 2.50285 | 360 ft | 0 kts | 86° |
| 2026-04-21 12:58 | 49.01423 | 2.50315 | 363 ft | 5 kts | 85° |
| 2026-04-21 12:58 | 49.01432 | 2.50399 | 361 ft | 10 kts | 61° |
| 2026-04-21 12:59 | 49.01493 | 2.50436 | 353 ft | 10 kts | 360° |
| 2026-04-21 12:59 | 49.01560 | 2.50424 | 353 ft | 10 kts | 354° |
| 2026-04-21 12:59 | 49.01610 | 2.50472 | 356 ft | 9 kts | 69° |
| 2026-04-21 12:59 | 49.01618 | 2.50573 | 353 ft | 10 kts | 83° |
| 2026-04-21 13:00 | 49.01626 | 2.50689 | 358 ft | 12 kts | 84° |
| 2026-04-21 13:00 | 49.01634 | 2.50824 | 353 ft | 14 kts | 89° |
| 2026-04-21 13:00 | 49.01640 | 2.50979 | 357 ft | 16 kts | 85° |
| 2026-04-21 13:00 | 49.01650 | 2.51155 | 353 ft | 17 kts | 85° |
| 2026-04-21 13:01 | 49.01724 | 2.51275 | 353 ft | 17 kts | 1° |
| 2026-04-21 13:01 | 49.01846 | 2.51262 | 353 ft | 18 kts | 356° |
| 2026-04-21 13:01 | 49.01975 | 2.51260 | 353 ft | 19 kts | 21° |
| 2026-04-21 13:01 | 49.02064 | 2.51403 | 356 ft | 18 kts | 69° |
| 2026-04-21 13:02 | 49.02080 | 2.51600 | 357 ft | 21 kts | 85° |
| 2026-04-21 13:02 | 49.02111 | 2.52173 | 352 ft | 104 kts | 85° |
| 2026-04-21 13:02 | 49.02286 | 2.55693 | 1609 ft | 198 kts | 84° |
| 2026-04-21 13:03 | 49.02394 | 2.57879 | 2850 ft | 214 kts | 83° |
| 2026-04-21 13:03 | 49.02522 | 2.60273 | 3708 ft | 233 kts | 83° |
| 2026-04-21 13:03 | 49.02662 | 2.62770 | 4788 ft | 237 kts | 83° |
| 2026-04-21 13:03 | 49.02807 | 2.65310 | 5826 ft | 244 kts | 83° |
| 2026-04-21 13:04 | 49.02950 | 2.67917 | 6874 ft | 250 kts | 83° |
| 2026-04-21 13:04 | 49.03089 | 2.70568 | 7860 ft | 255 kts | 84° |
| 2026-04-21 13:04 | 49.03389 | 2.73280 | 8711 ft | 261 kts | 66° |
| 2026-04-21 13:04 | 49.04460 | 2.75517 | 9680 ft | 262 kts | 41° |
| 2026-04-21 13:05 | 49.05762 | 2.77458 | 10608 ft | 270 kts | 44° |
| 2026-04-21 13:05 | 49.07117 | 2.79634 | 10995 ft | 296 kts | 45° |
| 2026-04-21 13:05 | 49.08588 | 2.82035 | 11371 ft | 319 kts | 46° |
| 2026-04-21 13:05 | 49.10114 | 2.84537 | 12228 ft | 325 kts | 45° |
| 2026-04-21 13:06 | 49.11674 | 2.87091 | 13037 ft | 333 kts | 44° |
| 2026-04-21 13:06 | 49.13257 | 2.89691 | 14030 ft | 335 kts | 44° |
| 2026-04-21 13:06 | 49.14846 | 2.92293 | 14744 ft | 342 kts | 44° |
| 2026-04-21 13:06 | 49.16485 | 2.94976 | 15597 ft | 345 kts | 43° |
| 2026-04-21 13:07 | 49.18131 | 2.97674 | 16409 ft | 350 kts | 43° |
| 2026-04-21 13:07 | 49.19815 | 3.00431 | 17136 ft | 357 kts | 43° |
| 2026-04-21 13:07 | 49.21522 | 3.03228 | 17967 ft | 361 kts | 43° |
| 2026-04-21 13:07 | 49.23230 | 3.06032 | 18932 ft | 358 kts | 42° |
| 2026-04-21 13:08 | 49.24921 | 3.08815 | 19847 ft | 356 kts | 40° |
| 2026-04-21 13:08 | 49.26606 | 3.11587 | 20738 ft | 355 kts | 41° |
| 2026-04-21 13:08 | 49.28278 | 3.14340 | 21709 ft | 351 kts | 40° |
| 2026-04-21 13:08 | 49.29941 | 3.17084 | 22563 ft | 352 kts | 39° |
| 2026-04-21 13:09 | 49.31597 | 3.19810 | 23063 ft | 356 kts | 38° |
| 2026-04-21 13:09 | 49.33286 | 3.22595 | 23181 ft | 357 kts | 38° |
| 2026-04-21 13:09 | 49.34969 | 3.25379 | 23184 ft | 354 kts | 38° |
| 2026-04-21 13:09 | 49.36639 | 3.28146 | 23185 ft | 354 kts | 38° |
| 2026-04-21 13:10 | 49.38315 | 3.30924 | 23192 ft | 354 kts | 38° |
| 2026-04-21 13:10 | 49.39991 | 3.33703 | 23197 ft | 354 kts | 38° |
| 2026-04-21 13:10 | 49.41664 | 3.36478 | 23193 ft | 354 kts | 38° |
| 2026-04-21 13:10 | 49.43334 | 3.39253 | 23200 ft | 354 kts | 38° |
| 2026-04-21 13:11 | 49.45006 | 3.42035 | 23195 ft | 354 kts | 38° |
| 2026-04-21 13:11 | 49.46677 | 3.44819 | 23197 ft | 355 kts | 38° |
| 2026-04-21 13:11 | 49.48351 | 3.47608 | 23206 ft | 355 kts | 39° |
| 2026-04-21 13:11 | 49.50004 | 3.50367 | 23194 ft | 355 kts | 40° |
| 2026-04-21 13:12 | 49.51673 | 3.53158 | 23188 ft | 354 kts | 40° |
| 2026-04-21 13:12 | 49.53341 | 3.55951 | 23187 ft | 353 kts | 40° |
| 2026-04-21 13:12 | 49.55001 | 3.58733 | 23209 ft | 353 kts | 40° |
| 2026-04-21 13:12 | 49.56660 | 3.61512 | 23195 ft | 352 kts | 42° |
| 2026-04-21 13:13 | 49.58311 | 3.64284 | 23191 ft | 351 kts | 42° |
| 2026-04-21 13:13 | 49.59957 | 3.67052 | 23189 ft | 350 kts | 42° |
| 2026-04-21 13:13 | 49.61598 | 3.69814 | 23177 ft | 349 kts | 42° |
| 2026-04-21 13:13 | 49.63242 | 3.72583 | 23183 ft | 348 kts | 42° |
| 2026-04-21 13:14 | 49.64874 | 3.75335 | 23184 ft | 347 kts | 42° |
| 2026-04-21 13:14 | 49.66504 | 3.78085 | 23191 ft | 347 kts | 42° |
| 2026-04-21 13:14 | 49.68134 | 3.80839 | 23028 ft | 349 kts | 43° |
| 2026-04-21 13:14 | 49.69763 | 3.83589 | 22781 ft | 343 kts | 45° |
| 2026-04-21 13:15 | 49.71368 | 3.86307 | 22414 ft | 341 kts | 44° |
| 2026-04-21 13:15 | 49.72953 | 3.88999 | 22053 ft | 337 kts | 46° |
| 2026-04-21 13:15 | 49.74527 | 3.91669 | 21675 ft | 334 kts | 45° |
| 2026-04-21 13:15 | 49.76081 | 3.94310 | 21301 ft | 331 kts | 46° |
| 2026-04-21 13:16 | 49.77624 | 3.96933 | 20929 ft | 328 kts | 45° |
| 2026-04-21 13:16 | 49.79137 | 3.99509 | 20560 ft | 326 kts | 45° |
| 2026-04-21 13:16 | 49.80655 | 4.02094 | 20197 ft | 324 kts | 45° |
| 2026-04-21 13:16 | 49.82168 | 4.04671 | 19840 ft | 321 kts | 46° |
| 2026-04-21 13:17 | 49.83661 | 4.07221 | 19486 ft | 319 kts | 46° |
| 2026-04-21 13:17 | 49.85158 | 4.09776 | 19121 ft | 317 kts | 45° |
| 2026-04-21 13:17 | 49.86637 | 4.12307 | 18769 ft | 315 kts | 46° |
| 2026-04-21 13:17 | 49.88089 | 4.14794 | 18407 ft | 314 kts | 45° |
| 2026-04-21 13:18 | 49.89560 | 4.17313 | 18005 ft | 312 kts | 46° |
| 2026-04-21 13:18 | 49.91001 | 4.19787 | 17631 ft | 310 kts | 46° |
| 2026-04-21 13:18 | 49.92451 | 4.22275 | 17262 ft | 307 kts | 46° |
| 2026-04-21 13:18 | 49.93865 | 4.24703 | 16917 ft | 304 kts | 46° |
| 2026-04-21 13:19 | 49.95278 | 4.27135 | 16571 ft | 302 kts | 45° |
| 2026-04-21 13:19 | 49.96679 | 4.29547 | 16218 ft | 300 kts | 46° |
| 2026-04-21 13:19 | 49.98069 | 4.31940 | 15887 ft | 297 kts | 46° |
| 2026-04-21 13:19 | 49.99447 | 4.34319 | 15545 ft | 295 kts | 47° |
| 2026-04-21 13:20 | 50.00376 | 4.35921 | 15314 ft | 294 kts | 47° |
| 2026-04-21 13:20 | 50.01723 | 4.38248 | 14989 ft | 292 kts | 47° |
| 2026-04-21 13:20 | 50.03082 | 4.40598 | 14649 ft | 291 kts | 47° |
| 2026-04-21 13:20 | 50.04433 | 4.42937 | 14308 ft | 290 kts | 47° |
| 2026-04-21 13:21 | 50.05780 | 4.45270 | 13980 ft | 288 kts | 47° |
| 2026-04-21 13:21 | 50.07118 | 4.47589 | 13599 ft | 287 kts | 48° |
| 2026-04-21 13:21 | 50.08445 | 4.49893 | 13258 ft | 285 kts | 48° |
| 2026-04-21 13:21 | 50.09765 | 4.52185 | 12931 ft | 282 kts | 48° |
| 2026-04-21 13:22 | 50.11070 | 4.54454 | 12583 ft | 280 kts | 49° |
| 2026-04-21 13:22 | 50.12364 | 4.56705 | 12272 ft | 277 kts | 49° |
| 2026-04-21 13:22 | 50.13647 | 4.58938 | 11934 ft | 275 kts | 49° |
| 2026-04-21 13:22 | 50.14920 | 4.61158 | 11615 ft | 274 kts | 49° |
| 2026-04-21 13:23 | 50.16184 | 4.63363 | 11299 ft | 272 kts | 50° |
| 2026-04-21 13:23 | 50.17437 | 4.65552 | 10975 ft | 270 kts | 50° |
| 2026-04-21 13:23 | 50.18682 | 4.67728 | 10660 ft | 268 kts | 50° |
| 2026-04-21 13:23 | 50.19919 | 4.69892 | 10404 ft | 265 kts | 50° |
| 2026-04-21 13:24 | 50.21107 | 4.71969 | 10280 ft | 256 kts | 50° |
| 2026-04-21 13:24 | 50.22279 | 4.74022 | 10053 ft | 252 kts | 50° |
| 2026-04-21 13:24 | 50.23445 | 4.76067 | 9762 ft | 251 kts | 50° |
| 2026-04-21 13:24 | 50.24597 | 4.78090 | 9474 ft | 248 kts | 50° |
| 2026-04-21 13:25 | 50.25742 | 4.80102 | 9195 ft | 247 kts | 50° |
| 2026-04-21 13:25 | 50.26879 | 4.82099 | 8915 ft | 245 kts | 51° |
| 2026-04-21 13:25 | 50.28000 | 4.84071 | 8658 ft | 241 kts | 50° |
| 2026-04-21 13:25 | 50.29114 | 4.86033 | 8373 ft | 240 kts | 50° |
| 2026-04-21 13:26 | 50.30221 | 4.87983 | 8099 ft | 239 kts | 50° |
| 2026-04-21 13:26 | 50.31312 | 4.89906 | 7816 ft | 238 kts | 50° |
| 2026-04-21 13:26 | 50.32405 | 4.91836 | 7560 ft | 236 kts | 50° |
| 2026-04-21 13:26 | 50.33493 | 4.93756 | 7311 ft | 235 kts | 51° |
| 2026-04-21 13:27 | 50.34578 | 4.95676 | 7034 ft | 235 kts | 51° |
| 2026-04-21 13:27 | 50.35663 | 4.97594 | 6767 ft | 234 kts | 50° |
| 2026-04-21 13:27 | 50.36722 | 4.99467 | 6500 ft | 232 kts | 50° |
| 2026-04-21 13:27 | 50.37788 | 5.01355 | 6248 ft | 230 kts | 50° |
| 2026-04-21 13:28 | 50.38843 | 5.03225 | 5982 ft | 228 kts | 51° |
| 2026-04-21 13:28 | 50.39892 | 5.05086 | 5716 ft | 228 kts | 50° |
| 2026-04-21 13:28 | 50.40933 | 5.06934 | 5505 ft | 224 kts | 50° |
| 2026-04-21 13:28 | 50.41948 | 5.08736 | 5375 ft | 218 kts | 50° |
| 2026-04-21 13:29 | 50.42963 | 5.10540 | 5097 ft | 221 kts | 50° |
| 2026-04-21 13:29 | 50.43971 | 5.12332 | 4965 ft | 216 kts | 50° |
| 2026-04-21 13:29 | 50.44949 | 5.14070 | 4855 ft | 209 kts | 51° |
| 2026-04-21 13:29 | 50.45890 | 5.15746 | 4763 ft | 201 kts | 50° |
| 2026-04-21 13:30 | 50.46798 | 5.17364 | 4675 ft | 194 kts | 50° |
| 2026-04-21 13:30 | 50.47683 | 5.18942 | 4476 ft | 191 kts | 50° |
| 2026-04-21 13:30 | 50.48561 | 5.20484 | 4297 ft | 189 kts | 48° |
| 2026-04-21 13:30 | 50.49493 | 5.21957 | 4095 ft | 191 kts | 46° |
| 2026-04-21 13:31 | 50.50432 | 5.23419 | 3889 ft | 194 kts | 46° |
| 2026-04-21 13:31 | 50.51392 | 5.24900 | 3664 ft | 192 kts | 45° |
| 2026-04-21 13:31 | 50.52363 | 5.26342 | 3447 ft | 187 kts | 46° |
| 2026-04-21 13:31 | 50.53271 | 5.27752 | 3201 ft | 184 kts | 46° |
| 2026-04-21 13:32 | 50.54158 | 5.29158 | 2994 ft | 179 kts | 47° |
| 2026-04-21 13:32 | 50.55026 | 5.30541 | 2773 ft | 175 kts | 46° |
| 2026-04-21 13:32 | 50.55867 | 5.31882 | 2625 ft | 166 kts | 47° |
| 2026-04-21 13:32 | 50.56648 | 5.33122 | 2459 ft | 154 kts | 46° |
| 2026-04-21 13:33 | 50.57397 | 5.34321 | 2270 ft | 152 kts | 45° |
| 2026-04-21 13:33 | 50.58141 | 5.35501 | 2065 ft | 150 kts | 46° |
| 2026-04-21 13:33 | 50.58867 | 5.36649 | 1901 ft | 146 kts | 46° |
| 2026-04-21 13:33 | 50.59562 | 5.37765 | 1681 ft | 142 kts | 45° |
| 2026-04-21 13:34 | 50.60255 | 5.38871 | 1455 ft | 144 kts | 47° |
| 2026-04-21 13:34 | 50.60956 | 5.39980 | 1275 ft | 142 kts | 46° |
| 2026-04-21 13:34 | 50.61647 | 5.41087 | 1028 ft | 139 kts | 46° |
| 2026-04-21 13:34 | 50.62316 | 5.42148 | 877 ft | 134 kts | 46° |
| 2026-04-21 13:35 | 50.63003 | 5.43246 | 691 ft | 146 kts | 44° |
| 2026-04-21 13:35 | 50.63664 | 5.44293 | 624 ft | 114 kts | 47° |
| 2026-04-21 13:35 | 50.64074 | 5.44938 | 600 ft | 53 kts | 45° |
| 2026-04-21 13:35 | 50.64219 | 5.45167 | 596 ft | 22 kts | 45° |
| 2026-04-21 13:36 | 50.64324 | 5.45332 | 597 ft | 21 kts | 45° |
| 2026-04-21 13:36 | 50.64390 | 5.45519 | 617 ft | 20 kts | 91° |
| 2026-04-21 13:36 | 50.64367 | 5.45714 | 617 ft | 13 kts | 147° |
| 2026-04-21 13:36 | 50.64290 | 5.45646 | 615 ft | 16 kts | 226° |
| 2026-04-21 13:37 | 50.64200 | 5.45504 | 622 ft | 21 kts | 226° |
| 2026-04-21 13:37 | 50.64087 | 5.45324 | 614 ft | 25 kts | 225° |
| 2026-04-21 13:37 | 50.63968 | 5.45135 | 620 ft | 23 kts | 225° |
| 2026-04-21 13:37 | 50.63856 | 5.44956 | 615 ft | 23 kts | 225° |
| 2026-04-21 13:38 | 50.63748 | 5.44783 | 620 ft | 22 kts | 225° |
| 2026-04-21 13:38 | 50.63641 | 5.44617 | 619 ft | 21 kts | 225° |
| 2026-04-21 13:38 | 50.63540 | 5.44454 | 624 ft | 21 kts | 225° |
| 2026-04-21 13:38 | 50.63439 | 5.44298 | 628 ft | 20 kts | 224° |
| 2026-04-21 13:39 | 50.63343 | 5.44144 | 638 ft | 18 kts | 225° |
| 2026-04-21 13:39 | 50.63281 | 5.44049 | 641 ft | 12 kts | 211° |
| 2026-04-21 13:39 | 50.63230 | 5.44084 | 638 ft | 0 kts | 135° |
| 2026-04-21 13:39 | 50.63224 | 5.44095 | 642 ft | 3 kts | 136° |
| 2026-04-21 13:40 | 50.63218 | 5.44104 | 638 ft | 0 kts | 135° |